createdAt,value
2019-04-16T00:01:34.663Z,7.90
2019-04-16T00:06:41.170Z,8.20
2019-04-16T00:11:47.595Z,16.93
2019-04-16T00:16:52.447Z,11.20
2019-04-16T00:21:59.232Z,11.13
2019-04-16T00:27:04.789Z,13.37
2019-04-16T00:32:11.404Z,12.70
2019-04-16T00:37:20.510Z,10.43
2019-04-16T00:42:22.886Z,10.97
2019-04-16T00:47:27.659Z,11.20
2019-04-16T00:52:36.640Z,12.43
2019-04-16T00:58:19.537Z,15.80
2019-04-16T01:03:21.611Z,18.10
2019-04-16T01:08:26.462Z,13.77
2019-04-16T01:13:32.478Z,15.07
2019-04-16T01:18:38.786Z,15.47
2019-04-16T01:23:48.557Z,12.17
2019-04-16T01:28:53.153Z,12.23
2019-04-16T01:33:59.569Z,18.67
2019-04-16T01:39:17.630Z,12.53
2019-04-16T01:44:14.336Z,14.60
2019-04-16T01:49:19.104Z,12.43
2019-04-16T01:54:23.872Z,15.53
2019-04-16T01:59:28.622Z,10.53
2019-04-16T02:04:33.373Z,14.77
2019-04-16T02:09:38.209Z,12.33
2019-04-16T02:14:42.967Z,12.07
2019-04-16T02:19:47.697Z,16.47
2019-04-16T02:24:52.738Z,14.13
2019-04-16T02:29:58.498Z,13.93
2019-04-16T02:35:06.287Z,17.20
2019-04-16T02:40:16.934Z,13.03
2019-04-16T02:45:22.452Z,17.03
2019-04-16T02:50:30.656Z,15.57
2019-04-16T02:55:34.099Z,17.63
2019-04-16T03:00:40.458Z,16.13
2019-04-16T03:05:46.922Z,18.07
2019-04-16T03:10:51.763Z,19.57
2019-04-16T03:15:59.330Z,15.03
2019-04-16T03:21:04.378Z,18.63
2019-04-16T03:26:09.230Z,21.27
2019-04-16T03:31:19.452Z,15.97
2019-04-16T03:36:20.383Z,20.17
2019-04-16T03:41:25.847Z,16.70
2019-04-16T03:46:30.918Z,21.03
2019-04-16T03:51:36.569Z,19.23
2019-04-16T03:56:41.824Z,22.83
2019-04-16T04:01:47.776Z,20.80
2019-04-16T04:06:52.543Z,24.30
2019-04-16T04:11:57.428Z,19.93
2019-04-16T04:17:05.185Z,20.63
2019-04-16T04:22:08.644Z,24.03
2019-04-16T04:27:18.268Z,23.77
2019-04-16T04:32:19.810Z,22.60
2019-04-16T04:37:24.642Z,25.50
2019-04-16T04:42:29.580Z,25.83
2019-04-16T04:47:34.488Z,28.37
2019-04-16T04:52:39.376Z,29.70
2019-04-16T04:57:44.158Z,33.17
2019-04-16T05:02:48.923Z,27.57
2019-04-16T05:07:59.671Z,31.63
2019-04-16T05:13:01.652Z,24.70
2019-04-16T05:18:09.722Z,29.37
2019-04-16T05:23:12.994Z,42.03
2019-04-16T05:28:55.680Z,42.93
2019-04-16T05:34:02.394Z,43.43
2019-04-16T05:39:08.789Z,48.60
2019-04-16T05:44:13.582Z,41.80
2019-04-16T05:49:18.418Z,41.83
2019-04-16T05:54:24.913Z,37.70
2019-04-16T05:59:33.467Z,42.30
2019-04-16T06:04:36.071Z,36.93
2019-04-16T06:09:44.090Z,37.00
2019-04-16T06:14:49.571Z,42.87
2019-04-16T06:19:55.242Z,35.33
2019-04-16T06:25:08.254Z,34.03
2019-04-16T06:30:10.167Z,38.40
2019-04-16T06:35:16.686Z,33.53
2019-04-16T06:40:23.248Z,40.03
2019-04-16T06:45:29.763Z,37.73
2019-04-16T06:50:40.615Z,37.97
2019-04-16T06:55:44.383Z,34.13
2019-04-16T07:00:51.007Z,41.03
2019-04-16T07:05:57.622Z,29.50
2019-04-16T07:11:12.826Z,37.07
2019-04-16T07:16:17.703Z,43.27
2019-04-16T07:21:59.535Z,27.13
2019-04-16T07:27:04.538Z,32.93
2019-04-16T07:32:47.266Z,33.27
2019-04-16T07:37:53.649Z,39.77
2019-04-16T07:43:00.225Z,29.70
2019-04-16T07:48:07.038Z,26.97
2019-04-16T07:53:51.190Z,38.53
2019-04-16T07:59:00.049Z,24.50
2019-04-16T08:04:38.850Z,23.67
2019-04-16T08:09:43.766Z,18.33
2019-04-16T08:15:25.415Z,20.17
2019-04-16T08:20:30.469Z,19.67
2019-04-16T08:26:13.819Z,19.30
2019-04-16T08:31:20.418Z,22.53
2019-04-16T08:37:02.616Z,15.57
2019-04-16T08:42:07.704Z,18.00
2019-04-16T08:47:12.962Z,17.60
2019-04-16T08:52:18.187Z,18.30
2019-04-16T08:57:23.073Z,10.93
2019-04-16T09:02:28.872Z,20.53
2019-04-16T09:07:35.407Z,11.43
2019-04-16T09:12:44.962Z,25.80
2019-04-16T09:17:48.384Z,8.30
2019-04-16T09:22:54.524Z,11.97
2019-04-16T09:28:01.892Z,8.20
2019-04-16T09:33:08.892Z,14.20
2019-04-16T09:38:15.392Z,9.97
2019-04-16T09:43:21.918Z,16.83
2019-04-16T09:48:26.852Z,9.23
2019-04-16T09:53:34.003Z,12.77
2019-04-16T09:58:42.343Z,10.23
2019-04-16T10:03:46.691Z,13.00
2019-04-16T10:08:51.644Z,10.90
2019-04-16T10:13:56.534Z,26.57
2019-04-16T10:19:01.407Z,10.17
2019-04-16T10:24:08.032Z,12.73
2019-04-16T10:29:14.496Z,9.90
2019-04-16T10:34:19.625Z,13.67
2019-04-16T10:39:26.168Z,11.30
2019-04-16T10:44:32.685Z,9.37
2019-04-16T10:49:39.249Z,6.37
2019-04-16T10:54:45.748Z,10.77
2019-04-16T10:59:52.433Z,13.80
2019-04-16T11:05:02.064Z,12.43
2019-04-16T11:10:11.597Z,9.60
2019-04-16T11:15:16.372Z,13.20
2019-04-16T11:20:21.252Z,8.10
2019-04-16T11:25:26.134Z,8.20
2019-04-16T11:30:34.294Z,8.97
2019-04-16T11:35:39.114Z,11.13
2019-04-16T11:40:44.096Z,8.17
2019-04-16T11:45:48.979Z,14.47
2019-04-16T11:51:30.037Z,8.70
2019-04-16T11:56:34.964Z,10.33
2019-04-16T12:01:41.503Z,9.07
2019-04-16T12:06:46.195Z,8.93
2019-04-16T12:11:52.574Z,7.47
2019-04-16T12:16:59.187Z,10.87
2019-04-16T12:22:05.636Z,14.40
2019-04-16T12:27:12.123Z,9.70
2019-04-16T12:32:18.727Z,12.77
2019-04-16T12:37:27.719Z,14.93
2019-04-16T12:42:34.270Z,20.50
2019-04-16T12:47:40.884Z,22.43
2019-04-16T12:53:24.787Z,16.87
2019-04-16T12:58:29.435Z,13.20
2019-04-16T13:03:36.042Z,43.93
2019-04-16T13:08:42.557Z,13.90
2019-04-16T13:13:49.074Z,12.07
2019-04-16T13:18:55.477Z,17.37
2019-04-16T13:24:02.245Z,11.17
2019-04-16T13:29:08.831Z,18.07
2019-04-16T13:34:18.286Z,18.07
2019-04-16T13:39:20.414Z,9.40
2019-04-16T13:44:26.893Z,9.77
2019-04-16T13:49:33.279Z,11.17
2019-04-16T13:54:39.952Z,8.10
2019-04-16T13:59:46.648Z,9.73
2019-04-16T14:04:51.827Z,12.50
2019-04-16T14:09:56.809Z,11.60
2019-04-16T14:15:01.671Z,10.57
2019-04-16T14:20:08.648Z,9.97
2019-04-16T14:25:14.515Z,9.53
2019-04-16T14:30:21.037Z,8.53
2019-04-16T14:35:33.415Z,10.93
2019-04-16T14:40:34.118Z,7.87
2019-04-16T14:45:56.795Z,12.37
2019-04-16T14:50:46.911Z,10.53
2019-04-16T14:56:00.637Z,11.47
2019-04-16T15:01:01.495Z,8.27
2019-04-16T15:06:07.945Z,9.30
2019-04-16T15:11:14.308Z,8.30
2019-04-16T15:16:22.201Z,12.10
2019-04-16T15:21:26.967Z,8.67
2019-04-16T15:26:33.394Z,9.33
2019-04-16T15:31:39.896Z,8.83
2019-04-16T15:36:49.932Z,8.97
2019-04-16T15:41:54.476Z,7.53
2019-04-16T15:47:01.256Z,11.47
2019-04-16T15:52:10.016Z,7.93
2019-04-16T15:57:16.055Z,10.47
2019-04-16T16:02:22.605Z,11.23
2019-04-16T16:07:28.279Z,10.13
2019-04-16T16:12:33.072Z,12.53
2019-04-16T16:17:37.948Z,18.23
2019-04-16T16:22:42.876Z,16.83
2019-04-16T16:27:47.648Z,8.77
2019-04-16T16:32:59.283Z,9.77
2019-04-16T16:38:04.332Z,10.33
2019-04-16T16:43:09.368Z,23.03
2019-04-16T16:48:14.356Z,13.40
2019-04-16T16:53:41.032Z,29.30
2019-04-16T16:58:47.413Z,26.90
2019-04-16T17:03:53.887Z,31.63
2019-04-16T17:08:59.142Z,18.00
2019-04-16T17:14:04.175Z,24.47
2019-04-16T17:19:09.009Z,17.60
2019-04-16T17:24:13.881Z,38.27
2019-04-16T17:29:18.875Z,41.23
2019-04-16T17:34:24.266Z,23.87
2019-04-16T17:39:31.039Z,11.63
2019-04-16T17:44:37.484Z,14.27
2019-04-16T17:49:43.917Z,28.47
2019-04-16T17:54:48.556Z,16.20
2019-04-16T17:59:55.158Z,16.70
2019-04-16T18:05:01.909Z,9.30
2019-04-16T18:10:09.335Z,13.83
2019-04-16T18:15:15.932Z,41.03
2019-04-16T18:20:22.492Z,37.00
2019-04-16T18:25:29.076Z,60.27
2019-04-16T18:30:35.647Z,48.80
2019-04-16T18:35:42.532Z,49.30
2019-04-16T18:40:49.179Z,31.30
2019-04-16T18:45:56.614Z,30.50
2019-04-16T18:51:02.099Z,23.93
2019-04-16T18:56:06.917Z,39.80
2019-04-16T19:01:13.507Z,30.33
2019-04-16T19:06:18.575Z,30.77
2019-04-16T19:11:23.431Z,35.03
2019-04-16T19:16:28.319Z,34.73
2019-04-16T19:21:35.411Z,32.20
2019-04-16T19:26:44.950Z,39.70
2019-04-16T19:31:56.772Z,35.67
2019-04-16T19:37:03.065Z,26.80
2019-04-16T19:42:11.320Z,25.93
2019-04-16T19:47:19.123Z,19.57
2019-04-16T19:52:29.764Z,23.03
2019-04-16T19:57:35.655Z,20.07
2019-04-16T20:02:40.423Z,24.40
2019-04-16T20:07:45.232Z,26.13
2019-04-16T20:12:50.193Z,27.60
2019-04-16T20:17:55.284Z,24.13
2019-04-16T20:23:00.365Z,21.73
2019-04-16T20:28:09.225Z,16.97
2019-04-16T20:33:12.044Z,22.30
2019-04-16T20:38:17.412Z,17.77
2019-04-16T20:43:22.286Z,18.40
2019-04-16T20:48:27.115Z,18.93
2019-04-16T20:53:31.955Z,18.10
2019-04-16T20:58:36.807Z,21.33
2019-04-16T21:03:41.688Z,17.80
2019-04-16T21:08:46.524Z,24.43
2019-04-16T21:13:51.352Z,22.83
2019-04-16T21:18:56.239Z,19.07
2019-04-16T21:24:06.872Z,17.73
2019-04-16T21:29:14.159Z,18.13
2019-04-16T21:34:18.759Z,16.93
2019-04-16T21:39:26.933Z,18.17
2019-04-16T21:44:35.965Z,16.77
2019-04-16T21:49:45.031Z,17.43
2019-04-16T21:54:48.741Z,18.97
2019-04-16T21:59:56.763Z,19.73
2019-04-16T22:04:59.899Z,20.70
2019-04-16T22:10:05.104Z,24.07
2019-04-16T22:15:11.567Z,23.53
2019-04-16T22:20:17.531Z,20.23
2019-04-16T22:25:23.684Z,26.57
2019-04-16T22:30:30.861Z,24.40
2019-04-16T22:35:38.231Z,20.30
2019-04-16T22:40:45.166Z,22.53
2019-04-16T22:45:53.384Z,23.20
2019-04-16T22:50:59.350Z,19.77
2019-04-16T22:56:04.395Z,23.33
2019-04-16T23:01:10.427Z,18.53
2019-04-16T23:06:15.131Z,21.67
2019-04-16T23:11:23.331Z,20.23
2019-04-16T23:16:26.378Z,20.63
2019-04-16T23:21:32.385Z,20.67
2019-04-16T23:26:37.286Z,20.83
2019-04-16T23:31:42.086Z,19.67
2019-04-16T23:36:48.783Z,20.33
2019-04-16T23:41:53.631Z,16.93
2019-04-16T23:47:00.186Z,15.63
2019-04-16T23:52:06.639Z,17.07
2019-04-16T23:57:13.002Z,15.83
